Time;durP1;ratioP1;P1;durP2;ratioP2;P2;SDS_P1;SDS_P2;PMS_P1;PMS_P2;Temp;Humidity;BMP_temperature;BMP_pressure;BME280_temperature;BME280_humidity;BME280_pressure;Samples;Min_cycle;Max_cycle;Signal;HPM_P1;HPM_P2
2022/08/25 00:01:13;;;;;;;17.80;11.90;;;;;;;;;;5053132;28;20025;-44
2022/08/25 00:03:38;;;;;;;18.23;11.90;;;;;;;;;;5035282;28;20032;-44
2022/08/25 00:06:05;;;;;;;19.65;11.73;;;;;;;;;;5052570;28;20053;-43
2022/08/25 00:08:33;;;;;;;19.02;12.20;;;;;;;;;;5035021;28;20033;-44
2022/08/25 00:10:59;;;;;;;23.03;12.70;;;;;;;;;;5035234;28;20017;-45
2022/08/25 00:13:24;;;;;;;18.60;11.98;;;;;;;;;;5053000;28;20717;-44
2022/08/25 00:15:49;;;;;;;21.88;12.40;;;;;;;;;;5035102;28;20078;-44
2022/08/25 00:18:14;;;;;;;24.48;12.82;;;;;;;;;;5034965;28;20210;-46
2022/08/25 00:20:40;;;;;;;21.95;13.23;;;;;;;;;;5035282;28;20017;-44
2022/08/25 00:23:05;;;;;;;24.52;13.02;;;;;;;;;;5034433;28;20404;-44
2022/08/25 00:25:31;;;;;;;21.57;12.57;;;;;;;;;;5052698;28;20028;-44
2022/08/25 00:27:57;;;;;;;18.73;11.70;;;;;;;;;;5052695;28;20662;-44
2022/08/25 00:30:23;;;;;;;16.33;12.27;;;;;;;;;;5034823;28;20028;-44
2022/08/25 00:32:48;;;;;;;18.35;12.20;;;;;;;;;;5052548;28;20021;-44
2022/08/25 00:35:14;;;;;;;20.23;12.32;;;;;;;;;;5034111;28;20044;-44
2022/08/25 00:37:40;;;;;;;22.08;12.35;;;;;;;;;;5052918;28;20029;-43
2022/08/25 00:40:05;;;;;;;20.60;12.05;;;;;;;;;;5052430;28;20048;-44
2022/08/25 00:42:31;;;;;;;20.52;11.85;;;;;;;;;;5052582;28;20083;-44
2022/08/25 00:44:57;;;;;;;18.50;9.77;;;;;;;;;;5052126;28;20027;-43
2022/08/25 00:47:22;;;;;;;15.48;10.27;;;;;;;;;;5051609;28;20024;-44
2022/08/25 00:49:53;;;;;;;15.07;10.07;;;;;;;;;;5052337;28;20021;-44
2022/08/25 00:52:21;;;;;;;16.77;11.15;;;;;;;;;;5036650;28;20016;-43
2022/08/25 00:54:48;;;;;;;22.10;11.27;;;;;;;;;;5032389;28;20480;-45
2022/08/25 00:57:15;;;;;;;19.25;11.40;;;;;;;;;;5032070;28;20377;-44
2022/08/25 00:59:42;;;;;;;18.30;11.10;;;;;;;;;;5031613;28;20112;-44
2022/08/25 01:02:07;;;;;;;14.00;9.32;;;;;;;;;;5030764;28;20541;-44
2022/08/25 01:04:33;;;;;;;14.00;8.63;;;;;;;;;;5031009;28;20149;-44
2022/08/25 01:06:59;;;;;;;14.00;8.52;;;;;;;;;;5031933;28;20372;-44
2022/08/25 01:09:24;;;;;;;17.75;9.50;;;;;;;;;;5031893;28;20453;-44
2022/08/25 01:11:50;;;;;;;15.95;9.75;;;;;;;;;;5031903;28;20024;-44
2022/08/25 01:14:16;;;;;;;14.52;10.18;;;;;;;;;;5031965;28;20025;-44
2022/08/25 01:16:42;;;;;;;12.15;9.27;;;;;;;;;;5031857;28;20524;-44
2022/08/25 01:19:08;;;;;;;16.80;11.30;;;;;;;;;;5031848;28;20041;-45
2022/08/25 01:21:52;;;;;;;15.00;9.90;;;;;;;;;;5032120;28;20324;-44
2022/08/25 01:24:36;;;;;;;15.13;10.95;;;;;;;;;;5031855;28;20100;-43
2022/08/25 01:27:02;;;;;;;15.20;10.05;;;;;;;;;;5031541;28;20047;-44
2022/08/25 01:29:28;;;;;;;16.88;9.90;;;;;;;;;;5031493;28;20068;-44
2022/08/25 01:31:58;;;;;;;18.63;10.52;;;;;;;;;;5031663;28;20017;-44
2022/08/25 01:34:28;;;;;;;21.73;12.68;;;;;;;;;;5013995;28;20025;-43
2022/08/25 01:36:54;;;;;;;26.52;13.68;;;;;;;;;;5013379;28;20029;-43
2022/08/25 01:39:19;;;;;;;26.30;13.57;;;;;;;;;;5031636;28;20096;-44
2022/08/25 01:41:47;;;;;;;22.67;13.20;;;;;;;;;;5013749;28;20023;-45
2022/08/25 01:44:13;;;;;;;24.37;13.20;;;;;;;;;;5013237;28;20025;-44
2022/08/25 01:46:38;;;;;;;16.80;12.48;;;;;;;;;;5013257;28;20078;-44
2022/08/25 01:49:04;;;;;;;20.00;12.27;;;;;;;;;;5031389;28;20041;-46
2022/08/25 01:51:32;;;;;;;21.80;11.63;;;;;;;;;;5039409;28;20017;-44
2022/08/25 01:53:57;;;;;;;16.97;11.37;;;;;;;;;;5051041;28;20052;-45
2022/08/25 01:56:23;;;;;;;16.33;12.57;;;;;;;;;;5051086;28;20645;-44
2022/08/25 01:58:48;;;;;;;22.35;11.90;;;;;;;;;;5032801;28;20387;-48
2022/08/25 02:01:19;;;;;;;16.30;11.50;;;;;;;;;;5051422;28;20371;-45
2022/08/25 02:03:47;;;;;;;16.45;11.45;;;;;;;;;;5051472;28;20021;-43
2022/08/25 02:06:13;;;;;;;19.23;11.60;;;;;;;;;;5060902;28;20044;-43
2022/08/25 02:08:39;;;;;;;16.48;11.02;;;;;;;;;;5071405;28;20032;-44
2022/08/25 02:11:04;;;;;;;22.42;12.35;;;;;;;;;;5070828;28;20020;-43
2022/08/25 02:13:29;;;;;;;17.00;12.20;;;;;;;;;;5069906;28;20033;-43
2022/08/25 02:15:56;;;;;;;16.33;11.50;;;;;;;;;;5074279;28;20054;-44
2022/08/25 02:18:21;;;;;;;16.98;11.65;;;;;;;;;;5074803;28;20024;-44
2022/08/25 02:20:47;;;;;;;16.50;11.00;;;;;;;;;;5075371;28;20380;-45
2022/08/25 02:23:12;;;;;;;22.08;13.15;;;;;;;;;;5075058;28;20456;-44
2022/08/25 02:25:38;;;;;;;22.30;11.80;;;;;;;;;;5074793;28;20025;-46
2022/08/25 02:28:05;;;;;;;22.95;14.63;;;;;;;;;;5074372;28;20802;-44
2022/08/25 02:30:30;;;;;;;22.98;13.88;;;;;;;;;;5073733;28;20020;-44
2022/08/25 02:32:56;;;;;;;19.25;12.52;;;;;;;;;;5075029;28;20016;-47
2022/08/25 02:35:22;;;;;;;23.38;12.88;;;;;;;;;;5074425;28;20094;-44
2022/08/25 02:37:49;;;;;;;23.27;12.73;;;;;;;;;;5074772;28;20483;-45
2022/08/25 02:40:14;;;;;;;24.92;13.80;;;;;;;;;;5074982;28;20473;-43
2022/08/25 02:42:39;;;;;;;20.02;12.18;;;;;;;;;;5073244;28;20140;-44
2022/08/25 02:45:06;;;;;;;21.35;12.65;;;;;;;;;;5074350;28;20017;-43
2022/08/25 02:47:31;;;;;;;13.30;10.30;;;;;;;;;;5074837;28;20274;-44
2022/08/25 02:49:57;;;;;;;17.17;11.10;;;;;;;;;;5074437;28;20112;-43
2022/08/25 02:52:24;;;;;;;12.77;9.20;;;;;;;;;;5058843;28;20028;-44
2022/08/25 02:54:49;;;;;;;17.83;10.05;;;;;;;;;;5052884;28;20159;-43
2022/08/25 02:57:14;;;;;;;23.02;12.63;;;;;;;;;;5053354;28;20111;-44
2022/08/25 02:59:40;;;;;;;20.52;12.20;;;;;;;;;;5054652;28;20021;-45
2022/08/25 03:02:05;;;;;;;22.63;12.52;;;;;;;;;;5054416;28;20112;-44
2022/08/25 03:04:30;;;;;;;23.40;13.05;;;;;;;;;;5051943;28;20025;-44
2022/08/25 03:06:56;;;;;;;20.73;13.05;;;;;;;;;;5016719;28;20028;-44
2022/08/25 03:09:21;;;;;;;19.77;12.43;;;;;;;;;;5016410;28;20025;-44
2022/08/25 03:11:47;;;;;;;23.38;13.52;;;;;;;;;;5016548;28;20428;-45
2022/08/25 03:14:12;;;;;;;23.50;14.00;;;;;;;;;;5034451;28;20453;-44
2022/08/25 03:16:38;;;;;;;19.00;13.00;;;;;;;;;;5034470;28;20458;-44
2022/08/25 03:19:04;;;;;;;24.05;12.75;;;;;;;;;;5034534;28;20071;-45
2022/08/25 03:21:29;;;;;;;22.50;12.75;;;;;;;;;;5033894;28;20017;-46
2022/08/25 03:23:55;;;;;;;17.67;12.13;;;;;;;;;;5015836;28;20029;-44
2022/08/25 03:29:05;;;;;;;24.80;13.18;;;;;;;;;;5034007;28;20389;-44
2022/08/25 03:31:31;;;;;;;27.13;13.00;;;;;;;;;;5033521;28;20014;-44
2022/08/25 03:33:57;;;;;;;24.90;12.30;;;;;;;;;;5034198;28;20076;-45
2022/08/25 03:36:22;;;;;;;31.90;13.02;;;;;;;;;;5034031;28;20025;-44
2022/08/25 03:38:48;;;;;;;19.45;13.05;;;;;;;;;;5015923;28;20022;-48
2022/08/25 03:41:15;;;;;;;24.30;13.30;;;;;;;;;;5033109;28;20052;-44
2022/08/25 03:43:40;;;;;;;25.65;13.88;;;;;;;;;;5033478;28;20028;-44
2022/08/25 03:46:05;;;;;;;22.35;13.82;;;;;;;;;;5015820;28;20022;-44
2022/08/25 03:48:31;;;;;;;21.10;11.73;;;;;;;;;;5033901;28;20037;-44
2022/08/25 03:50:56;;;;;;;21.73;13.25;;;;;;;;;;5037366;28;20317;-44
2022/08/25 03:53:21;;;;;;;24.20;12.45;;;;;;;;;;5035304;28;20452;-43
2022/08/25 03:55:47;;;;;;;21.13;12.43;;;;;;;;;;5053454;28;20471;-44
2022/08/25 03:58:13;;;;;;;15.50;11.88;;;;;;;;;;5035526;28;20024;-43
2022/08/25 04:00:38;;;;;;;22.83;11.77;;;;;;;;;;5035390;28;20116;-44
2022/08/25 04:03:03;;;;;;;19.60;12.20;;;;;;;;;;5053506;28;20021;-44
2022/08/25 04:05:28;;;;;;;22.08;12.10;;;;;;;;;;5052064;28;20095;-44
2022/08/25 04:07:54;;;;;;;20.50;12.38;;;;;;;;;;5073185;28;20032;-44
2022/08/25 04:10:20;;;;;;;23.05;14.00;;;;;;;;;;5073151;28;20456;-46
2022/08/25 04:12:46;;;;;;;27.60;13.30;;;;;;;;;;5073135;28;20024;-43
2022/08/25 04:15:11;;;;;;;20.17;11.88;;;;;;;;;;5073247;28;20028;-43
2022/08/25 04:17:38;;;;;;;16.70;10.83;;;;;;;;;;5073317;28;20017;-44
2022/08/25 04:20:04;;;;;;;19.65;10.88;;;;;;;;;;5071119;28;20333;-43
2022/08/25 04:22:30;;;;;;;13.85;10.55;;;;;;;;;;5073322;28;20021;-43
2022/08/25 04:24:57;;;;;;;30.55;11.55;;;;;;;;;;5072710;28;20054;-44
2022/08/25 04:27:22;;;;;;;16.75;10.45;;;;;;;;;;5072775;28;20434;-45
2022/08/25 04:29:47;;;;;;;12.93;8.93;;;;;;;;;;5072811;28;20012;-45
2022/08/25 04:32:13;;;;;;;17.35;10.05;;;;;;;;;;5072667;28;20743;-44
2022/08/25 04:34:38;;;;;;;19.40;10.90;;;;;;;;;;5072596;28;20424;-45
2022/08/25 04:37:06;;;;;;;24.25;11.88;;;;;;;;;;5071876;28;20287;-46
2022/08/25 04:39:31;;;;;;;18.25;10.63;;;;;;;;;;5071181;28;20107;-44
2022/08/25 04:41:59;;;;;;;18.85;11.25;;;;;;;;;;5070606;28;20135;-44
2022/08/25 04:44:24;;;;;;;18.92;10.95;;;;;;;;;;5070653;28;20020;-44
2022/08/25 04:46:49;;;;;;;15.63;10.73;;;;;;;;;;5072565;28;20478;-44
2022/08/25 04:49:15;;;;;;;24.60;11.88;;;;;;;;;;5071226;28;20511;-43
2022/08/25 04:51:40;;;;;;;13.32;9.98;;;;;;;;;;5061402;28;20021;-46
2022/08/25 04:54:07;;;;;;;17.10;10.95;;;;;;;;;;5052348;28;20085;-44
2022/08/25 04:56:33;;;;;;;15.30;11.07;;;;;;;;;;5050591;28;20021;-43
2022/08/25 04:59:02;;;;;;;12.73;8.70;;;;;;;;;;5052225;28;20032;-44
2022/08/25 05:01:27;;;;;;;;;;;;;;;;;;5052612;28;20025;-43
2022/08/25 05:03:54;;;;;;;30.02;14.20;;;;;;;;;;5052822;28;19911;-44
2022/08/25 05:06:19;;;;;;;17.42;10.98;;;;;;;;;;5034759;28;20046;-43
2022/08/25 05:08:45;;;;;;;16.15;9.82;;;;;;;;;;5031683;28;20033;-44
2022/08/25 05:11:13;;;;;;;15.88;10.00;;;;;;;;;;5031944;28;20033;-44
2022/08/25 05:13:39;;;;;;;19.63;11.73;;;;;;;;;;5032300;28;20067;-44
2022/08/25 05:16:04;;;;;;;16.90;11.18;;;;;;;;;;5032027;28;20423;-44
2022/08/25 05:18:30;;;;;;;18.65;12.25;;;;;;;;;;5031650;28;20060;-44
2022/08/25 05:21:00;;;;;;;19.17;10.48;;;;;;;;;;5014214;28;20039;-44
2022/08/25 05:23:25;;;;;;;17.30;11.05;;;;;;;;;;5031802;28;20029;-43
2022/08/25 05:25:50;;;;;;;13.00;9.13;;;;;;;;;;5014315;28;20072;-46
2022/08/25 05:28:16;;;;;;;13.40;8.75;;;;;;;;;;5031888;28;20646;-44
2022/08/25 05:30:42;;;;;;;16.90;10.32;;;;;;;;;;5032093;28;20052;-43
2022/08/25 05:33:08;;;;;;;12.50;7.20;;;;;;;;;;5013772;28;20028;-43
2022/08/25 05:35:34;;;;;;;12.75;8.13;;;;;;;;;;5031786;28;20084;-45
2022/08/25 05:37:59;;;;;;;16.02;8.13;;;;;;;;;;5031230;28;20079;-46
2022/08/25 05:40:25;;;;;;;20.37;8.27;;;;;;;;;;5031365;28;20017;-44
2022/08/25 05:42:50;;;;;;;11.25;7.20;;;;;;;;;;5031780;28;20247;-43
2022/08/25 05:45:16;;;;;;;11.30;6.97;;;;;;;;;;5014002;28;20037;-44
2022/08/25 05:47:41;;;;;;;16.92;8.40;;;;;;;;;;5031728;28;20333;-44
2022/08/25 05:50:08;;;;;;;16.58;8.10;;;;;;;;;;5031992;28;20028;-44
2022/08/25 05:52:33;;;;;;;17.73;8.35;;;;;;;;;;5022565;28;20014;-46
2022/08/25 05:54:59;;;;;;;15.98;8.07;;;;;;;;;;5041451;28;20018;-45
2022/08/25 05:57:24;;;;;;;15.70;8.00;;;;;;;;;;5046207;28;20017;-44
2022/08/25 05:59:49;;;;;;;10.10;5.83;;;;;;;;;;5041482;28;20022;-45
2022/08/25 06:04:59;;;;;;;20.33;7.50;;;;;;;;;;5045556;28;20067;-45
2022/08/25 06:07:24;;;;;;;10.30;5.90;;;;;;;;;;5048385;28;20033;-44
2022/08/25 06:09:49;;;;;;;15.35;6.13;;;;;;;;;;5039240;28;20013;-46
2022/08/25 06:12:15;;;;;;;13.10;6.30;;;;;;;;;;5030529;28;20025;-44
2022/08/25 06:14:41;;;;;;;12.10;5.78;;;;;;;;;;5030504;28;20265;-44
2022/08/25 06:17:06;;;;;;;13.40;5.63;;;;;;;;;;5040737;28;20025;-44
2022/08/25 06:19:32;;;;;;;17.52;6.55;;;;;;;;;;5043933;28;20071;-43
2022/08/25 06:21:57;;;;;;;11.40;5.63;;;;;;;;;;5049022;28;20066;-47
2022/08/25 06:24:24;;;;;;;9.05;4.90;;;;;;;;;;5050274;28;20023;-44
2022/08/25 06:26:50;;;;;;;7.78;4.75;;;;;;;;;;5032246;28;20025;-46
2022/08/25 06:29:15;;;;;;;10.05;4.45;;;;;;;;;;5029616;28;20449;-44
2022/08/25 06:31:41;;;;;;;11.00;5.25;;;;;;;;;;5030533;28;20029;-44
2022/08/25 06:34:06;;;;;;;14.10;4.75;;;;;;;;;;5030449;28;20022;-45
2022/08/25 06:36:32;;;;;;;12.70;4.70;;;;;;;;;;5030465;28;20061;-44
2022/08/25 06:38:57;;;;;;;15.38;5.20;;;;;;;;;;5011849;28;20030;-46
2022/08/25 06:41:24;;;;;;;14.63;5.68;;;;;;;;;;5012729;28;20378;-43
2022/08/25 06:43:50;;;;;;;17.25;5.40;;;;;;;;;;5030275;28;20013;-44
2022/08/25 06:46:20;;;;;;;16.05;5.45;;;;;;;;;;5030164;28;20033;-45
2022/08/25 06:48:45;;;;;;;19.13;5.20;;;;;;;;;;5011697;28;20044;-44
2022/08/25 06:51:13;;;;;;;10.35;5.55;;;;;;;;;;5012115;28;20400;-45
2022/08/25 06:53:39;;;;;;;24.60;6.15;;;;;;;;;;5022358;28;20476;-49
2022/08/25 06:56:05;;;;;;;13.95;5.32;;;;;;;;;;5050268;28;20029;-45
2022/08/25 06:58:31;;;;;;;28.85;6.70;;;;;;;;;;5032105;28;20040;-44
2022/08/25 07:01:04;;;;;;;15.45;4.80;;;;;;;;;;5050994;28;20017;-45
2022/08/25 07:03:30;;;;;;;23.48;5.88;;;;;;;;;;5053170;28;20017;-44
2022/08/25 07:05:55;;;;;;;29.60;6.53;;;;;;;;;;5053615;28;20056;-47
2022/08/25 07:08:22;;;;;;;18.25;5.68;;;;;;;;;;5063567;28;20687;-46
2022/08/25 07:10:48;;;;;;;15.82;4.95;;;;;;;;;;5073219;28;20016;-44
2022/08/25 07:13:13;;;;;;;18.35;5.47;;;;;;;;;;5072954;28;20021;-45
2022/08/25 07:15:39;;;;;;;20.88;5.95;;;;;;;;;;5073047;28;20483;-45
2022/08/25 07:18:05;;;;;;;23.73;5.78;;;;;;;;;;5073217;28;20074;-44
2022/08/25 07:20:32;;;;;;;25.65;5.78;;;;;;;;;;5073301;28;20063;-44
2022/08/25 07:22:58;;;;;;;18.52;5.35;;;;;;;;;;5071450;28;20119;-45
2022/08/25 07:25:23;;;;;;;21.47;5.73;;;;;;;;;;5074079;28;20056;-44
2022/08/25 07:27:48;;;;;;;18.25;5.85;;;;;;;;;;5072114;28;20367;-47
2022/08/25 07:30:16;;;;;;;19.65;5.97;;;;;;;;;;5072465;28;20024;-43
2022/08/25 07:32:41;;;;;;;26.60;5.88;;;;;;;;;;5071425;28;20048;-44
2022/08/25 07:35:16;;;;;;;14.20;5.77;;;;;;;;;;5072727;28;20464;-44
2022/08/25 07:37:59;;;;;;;14.65;5.00;;;;;;;;;;5071897;28;20340;-44
2022/08/25 07:40:26;;;;;;;20.15;5.20;;;;;;;;;;5072939;28;20056;-43
2022/08/25 07:42:53;;;;;;;10.90;4.00;;;;;;;;;;5071679;28;20464;-45
2022/08/25 07:45:20;;;;;;;20.35;6.40;;;;;;;;;;5070962;28;20046;-43
2022/08/25 07:47:45;;;;;;;16.58;5.40;;;;;;;;;;5071569;28;20080;-45
2022/08/25 07:50:11;;;;;;;16.60;4.90;;;;;;;;;;5072499;28;20382;-46
2022/08/25 07:52:37;;;;;;;16.20;5.50;;;;;;;;;;5056696;28;20059;-45
2022/08/25 07:55:03;;;;;;;20.05;5.55;;;;;;;;;;5072899;28;20060;-44
2022/08/25 07:57:28;;;;;;;15.35;5.18;;;;;;;;;;5072258;28;20052;-44
2022/08/25 07:59:54;;;;;;;13.73;4.32;;;;;;;;;;5069351;28;20032;-45
2022/08/25 08:02:19;;;;;;;16.13;4.35;;;;;;;;;;5072091;28;20020;-44
2022/08/25 08:04:47;;;;;;;13.30;5.03;;;;;;;;;;5068771;28;20124;-43
2022/08/25 08:07:14;;;;;;;12.43;4.28;;;;;;;;;;5052229;28;20027;-44
2022/08/25 08:09:39;;;;;;;14.70;5.00;;;;;;;;;;5052275;28;20021;-44
2022/08/25 08:12:05;;;;;;;12.67;3.67;;;;;;;;;;5052598;28;20476;-45
2022/08/25 08:14:31;;;;;;;7.63;3.13;;;;;;;;;;5051862;28;20016;-49
2022/08/25 08:16:56;;;;;;;17.60;4.25;;;;;;;;;;5051964;28;20029;-45
2022/08/25 08:19:21;;;;;;;13.80;4.90;;;;;;;;;;5051824;28;20029;-45
2022/08/25 08:21:48;;;;;;;10.98;4.28;;;;;;;;;;5034621;28;20246;-45
2022/08/25 08:24:13;;;;;;;16.85;4.43;;;;;;;;;;5051895;28;20032;-45
2022/08/25 08:26:39;;;;;;;21.63;4.97;;;;;;;;;;5052549;28;20029;-44
2022/08/25 08:29:04;;;;;;;13.50;3.90;;;;;;;;;;5051231;28;20028;-45
2022/08/25 08:31:29;;;;;;;12.38;4.68;;;;;;;;;;5033752;28;20024;-46
2022/08/25 08:33:55;;;;;;;13.67;4.17;;;;;;;;;;5050567;28;20381;-45
2022/08/25 08:36:21;;;;;;;14.60;4.00;;;;;;;;;;5051002;28;20777;-46
2022/08/25 08:38:47;;;;;;;15.60;4.03;;;;;;;;;;5051203;28;20303;-44
2022/08/25 08:44:05;;;;;;;9.20;3.38;;;;;;;;;;5051152;28;20112;-44
2022/08/25 08:46:35;;;;;;;11.80;3.75;;;;;;;;;;5050798;28;20524;-47
2022/08/25 08:49:05;;;;;;;15.82;4.35;;;;;;;;;;5050071;28;20036;-45
2022/08/25 08:51:34;;;;;;;12.20;3.72;;;;;;;;;;5024810;28;20049;-46
2022/08/25 08:54:06;;;;;;;8.52;3.22;;;;;;;;;;5027227;28;20025;-43
2022/08/25 08:56:35;;;;;;;16.92;4.05;;;;;;;;;;5032867;28;20017;-46
2022/08/25 08:59:00;;;;;;;13.23;3.70;;;;;;;;;;5049670;28;20460;-44
2022/08/25 09:01:28;;;;;;;10.97;3.80;;;;;;;;;;5032875;28;20107;-44
2022/08/25 09:04:12;;;;;;;11.20;3.90;;;;;;;;;;5033432;28;20300;-45
2022/08/25 09:06:40;;;;;;;11.48;3.72;;;;;;;;;;5051557;28;20060;-43
2022/08/25 09:09:07;;;;;;;15.27;4.03;;;;;;;;;;5032682;28;20571;-43
2022/08/25 09:11:38;;;;;;;8.50;2.97;;;;;;;;;;5032341;28;20464;-41
2022/08/25 09:14:13;;;;;;;9.38;2.92;;;;;;;;;;5033415;28;20013;-44
2022/08/25 09:16:53;;;;;;;16.05;3.75;;;;;;;;;;5032829;28;20025;-47
2022/08/25 09:19:28;;;;;;;7.47;3.25;;;;;;;;;;5050355;28;20523;-40
2022/08/25 09:21:57;;;;;;;10.77;3.55;;;;;;;;;;5050338;28;20078;-45
2022/08/25 09:24:49;;;;;;;12.52;3.42;;;;;;;;;;5050639;28;20024;-44
2022/08/25 09:27:15;;;;;;;11.18;3.17;;;;;;;;;;5032422;28;20029;-41
2022/08/25 09:29:59;;;;;;;12.70;3.27;;;;;;;;;;5049930;28;20048;-43
2022/08/25 09:32:26;;;;;;;6.20;2.85;;;;;;;;;;5046298;28;20437;-44
2022/08/25 09:34:53;;;;;;;12.25;3.17;;;;;;;;;;5042448;28;20467;-44
2022/08/25 09:37:18;;;;;;;10.35;2.65;;;;;;;;;;5032617;28;20059;-43
2022/08/25 09:39:44;;;;;;;6.90;2.70;;;;;;;;;;5042591;28;20055;-46
2022/08/25 09:42:09;;;;;;;9.93;2.70;;;;;;;;;;5030219;28;20027;-43
2022/08/25 09:44:42;;;;;;;7.53;2.87;;;;;;;;;;5029847;28;20547;-43
2022/08/25 09:47:16;;;;;;;8.88;3.13;;;;;;;;;;5036039;28;20287;-43
2022/08/25 09:49:43;;;;;;;8.25;3.30;;;;;;;;;;5029751;28;20033;-47
2022/08/25 09:52:17;;;;;;;6.38;3.08;;;;;;;;;;5043478;28;20457;-44
2022/08/25 09:54:43;;;;;;;9.52;3.08;;;;;;;;;;5035407;28;20048;-46
2022/08/25 09:57:26;;;;;;;11.23;3.85;;;;;;;;;;5037303;28;20484;-46
2022/08/25 09:59:51;;;;;;;13.25;2.78;;;;;;;;;;5011868;28;20021;-44
2022/08/25 10:02:25;;;;;;;17.52;3.72;;;;;;;;;;5030176;28;20045;-41
2022/08/25 10:04:51;;;;;;;9.32;3.08;;;;;;;;;;5037671;28;20463;-42
2022/08/25 10:07:24;;;;;;;16.55;3.95;;;;;;;;;;5024865;28;20060;-45
2022/08/25 10:09:54;;;;;;;12.88;3.78;;;;;;;;;;5049305;28;20556;-46
2022/08/25 10:12:37;;;;;;;8.80;3.13;;;;;;;;;;5036805;28;20033;-43
2022/08/25 10:15:22;;;;;;;15.15;3.50;;;;;;;;;;5031983;28;20036;-45
2022/08/25 10:17:49;;;;;;;13.93;3.33;;;;;;;;;;5050457;28;20052;-46
2022/08/25 10:20:18;;;;;;;11.00;3.38;;;;;;;;;;5031654;28;20021;-45
2022/08/25 10:22:44;;;;;;;6.40;2.60;;;;;;;;;;5050592;28;20032;-41
2022/08/25 10:25:12;;;;;;;11.43;3.55;;;;;;;;;;5050378;28;20029;-45
2022/08/25 10:27:40;;;;;;;10.93;3.17;;;;;;;;;;5050606;28;20040;-44
2022/08/25 10:30:09;;;;;;;10.07;3.30;;;;;;;;;;5049699;28;20025;-42
2022/08/25 10:32:53;;;;;;;11.43;3.25;;;;;;;;;;5049669;28;20025;-44
2022/08/25 10:35:37;;;;;;;12.60;3.42;;;;;;;;;;5050260;28;20063;-41
2022/08/25 10:38:09;;;;;;;11.80;3.20;;;;;;;;;;5036177;28;20120;-45
2022/08/25 10:40:50;;;;;;;12.32;3.88;;;;;;;;;;5053112;28;20088;-43
2022/08/25 10:43:22;;;;;;;8.15;3.08;;;;;;;;;;5053643;28;20032;-42
2022/08/25 10:45:56;;;;;;;21.00;3.88;;;;;;;;;;5035650;28;20033;-43
2022/08/25 10:48:30;;;;;;;9.82;3.13;;;;;;;;;;5053584;28;20442;-41
2022/08/25 10:51:24;;;;;;;10.27;3.08;;;;;;;;;;5034437;28;20104;-42
2022/08/25 10:53:54;;;;;;;9.70;3.22;;;;;;;;;;5050308;28;20463;-47
2022/08/25 10:56:40;;;;;;;12.27;3.75;;;;;;;;;;5053774;28;20029;-43
2022/08/25 10:59:08;;;;;;;13.13;3.83;;;;;;;;;;5044388;28;20040;-45
2022/08/25 11:01:33;;;;;;;;;;;;;;;;;;5034679;28;20100;-46
2022/08/25 11:04:06;;;;;;;12.30;3.23;;;;;;;;;;5031820;28;19999;-44
2022/08/25 11:06:34;;;;;;;12.18;3.78;;;;;;;;;;5032959;28;20083;-46
2022/08/25 11:09:03;;;;;;;8.38;2.90;;;;;;;;;;5032547;28;20033;-46
2022/08/25 11:11:35;;;;;;;10.25;2.65;;;;;;;;;;5015495;28;20126;-43
2022/08/25 11:14:07;;;;;;;11.18;3.35;;;;;;;;;;5033234;28;20045;-43
2022/08/25 11:16:43;;;;;;;18.02;3.30;;;;;;;;;;5032121;28;20025;-45
2022/08/25 11:19:17;;;;;;;9.35;2.63;;;;;;;;;;5022091;28;20028;-43
2022/08/25 11:21:48;;;;;;;12.52;3.40;;;;;;;;;;5020784;28;20036;-44
2022/08/25 11:24:13;;;;;;;12.30;2.63;;;;;;;;;;5032388;28;20116;-43
2022/08/25 11:26:40;;;;;;;11.57;2.83;;;;;;;;;;5033447;28;20100;-45
2022/08/25 11:29:15;;;;;;;11.63;4.00;;;;;;;;;;5031771;28;20025;-44
2022/08/25 11:31:46;;;;;;;13.93;3.28;;;;;;;;;;5032851;28;20152;-43
2022/08/25 11:34:14;;;;;;;17.65;3.45;;;;;;;;;;5033170;28;20025;-42
2022/08/25 11:36:48;;;;;;;20.85;3.42;;;;;;;;;;5033204;28;20021;-44
2022/08/25 11:39:14;;;;;;;11.45;3.67;;;;;;;;;;5014622;28;20021;-44
2022/08/25 11:41:58;;;;;;;15.85;3.90;;;;;;;;;;5039227;28;20369;-46
2022/08/25 11:44:32;;;;;;;17.17;3.60;;;;;;;;;;5033199;28;20112;-44
2022/08/25 11:46:58;;;;;;;13.38;3.35;;;;;;;;;;5028828;28;20491;-46
2022/08/25 11:49:30;;;;;;;10.10;2.90;;;;;;;;;;5032556;28;20025;-43
2022/08/25 11:51:55;;;;;;;12.63;3.08;;;;;;;;;;5014422;28;20087;-45
2022/08/25 11:54:26;;;;;;;9.70;3.28;;;;;;;;;;5048842;28;20414;-45
2022/08/25 11:56:53;;;;;;;16.30;3.20;;;;;;;;;;5051632;28;20024;-43
2022/08/25 11:59:37;;;;;;;15.30;3.27;;;;;;;;;;5034148;28;20094;-45
2022/08/25 12:02:03;;;;;;;11.35;3.35;;;;;;;;;;5052578;28;20021;-44
2022/08/25 12:04:41;;;;;;;21.60;3.20;;;;;;;;;;5034291;28;20018;-44
2022/08/25 12:07:09;;;;;;;15.43;3.88;;;;;;;;;;5051274;28;20052;-45
2022/08/25 12:09:38;;;;;;;8.25;2.80;;;;;;;;;;5051650;28;20025;-44
2022/08/25 12:12:22;;;;;;;20.42;4.00;;;;;;;;;;5034310;28;20387;-46
2022/08/25 12:14:50;;;;;;;13.05;3.10;;;;;;;;;;5052704;28;20029;-45
2022/08/25 12:17:17;;;;;;;9.82;3.70;;;;;;;;;;5052254;28;20071;-43
2022/08/25 12:19:43;;;;;;;12.40;2.70;;;;;;;;;;5032774;28;20029;-45
2022/08/25 12:22:08;;;;;;;11.47;3.07;;;;;;;;;;5051769;28;20036;-43
2022/08/25 12:24:42;;;;;;;13.65;3.33;;;;;;;;;;5034098;28;20064;-45
2022/08/25 12:27:19;;;;;;;14.35;3.53;;;;;;;;;;5052039;28;20097;-46
2022/08/25 12:29:47;;;;;;;10.55;3.25;;;;;;;;;;5051397;28;20385;-44
2022/08/25 12:32:12;;;;;;;;;;;;;;;;;;5034111;28;20115;-46
2022/08/25 12:34:44;;;;;;;20.53;3.80;;;;;;;;;;5033953;28;20005;-46
2022/08/25 12:37:19;;;;;;;14.45;3.42;;;;;;;;;;5051600;28;20033;-44
2022/08/25 12:39:48;;;;;;;15.73;3.40;;;;;;;;;;5033514;28;20680;-44
2022/08/25 12:42:13;;;;;;;;;;;;;;;;;;5052325;28;20025;-46
2022/08/25 12:44:40;;;;;;;20.40;3.77;;;;;;;;;;5051674;28;19905;-44
2022/08/25 12:47:11;;;;;;;9.70;3.07;;;;;;;;;;5051879;28;20692;-43
2022/08/25 12:49:36;;;;;;;16.60;3.53;;;;;;;;;;5050969;28;20029;-43
2022/08/25 12:52:14;;;;;;;12.48;3.10;;;;;;;;;;5051653;28;20020;-43
2022/08/25 12:54:45;;;;;;;14.23;3.77;;;;;;;;;;5032422;28;20029;-44
2022/08/25 12:57:30;;;;;;;14.85;3.35;;;;;;;;;;5013772;28;20392;-44
2022/08/25 12:59:56;;;;;;;12.90;3.38;;;;;;;;;;5030106;28;20435;-46
2022/08/25 13:02:40;;;;;;;10.95;3.55;;;;;;;;;;5013231;28;20088;-45
2022/08/25 13:05:24;;;;;;;11.27;3.13;;;;;;;;;;5031282;28;20136;-44
2022/08/25 13:08:07;;;;;;;10.55;3.33;;;;;;;;;;5030829;28;20049;-46
2022/08/25 13:10:54;;;;;;;19.60;3.35;;;;;;;;;;5048069;28;20025;-46
2022/08/25 13:13:22;;;;;;;16.92;3.83;;;;;;;;;;5050557;28;20111;-44
2022/08/25 13:16:02;;;;;;;14.35;3.58;;;;;;;;;;5050736;28;20148;-45
2022/08/25 13:18:30;;;;;;;15.57;3.85;;;;;;;;;;5032886;28;20657;-45
2022/08/25 13:21:07;;;;;;;10.88;3.95;;;;;;;;;;5032218;28;20060;-43
2022/08/25 13:23:34;;;;;;;19.90;3.88;;;;;;;;;;5050803;28;20472;-44
2022/08/25 13:26:00;;;;;;;11.93;2.97;;;;;;;;;;5032063;28;20419;-44
2022/08/25 13:28:27;;;;;;;9.73;3.58;;;;;;;;;;5050009;28;20033;-44
2022/08/25 13:31:07;;;;;;;13.40;2.92;;;;;;;;;;5031720;28;20112;-43
2022/08/25 13:33:33;;;;;;;17.35;3.70;;;;;;;;;;5050567;28;20028;-44
2022/08/25 13:38:44;;;;;;;14.75;3.20;;;;;;;;;;5050507;28;20031;-45
2022/08/25 13:41:09;;;;;;;17.23;3.53;;;;;;;;;;5049578;28;20040;-41
2022/08/25 13:43:36;;;;;;;15.18;3.30;;;;;;;;;;5032754;28;20457;-42
2022/08/25 13:46:01;;;;;;;11.52;3.15;;;;;;;;;;5050286;28;20577;-44
2022/08/25 13:48:34;;;;;;;15.18;3.80;;;;;;;;;;5049113;28;20043;-45
2022/08/25 13:51:06;;;;;;;12.38;3.40;;;;;;;;;;5048440;28;20060;-43
2022/08/25 13:53:31;;;;;;;15.30;3.67;;;;;;;;;;5023057;28;20067;-46
2022/08/25 13:55:58;;;;;;;15.70;3.60;;;;;;;;;;5012493;28;20017;-45
2022/08/25 13:58:28;;;;;;;13.88;3.17;;;;;;;;;;5029655;28;20112;-45
2022/08/25 14:01:02;;;;;;;14.23;3.63;;;;;;;;;;5010625;28;20117;-44
2022/08/25 14:03:38;;;;;;;21.27;3.55;;;;;;;;;;5028170;28;20028;-44
2022/08/25 14:06:08;;;;;;;12.02;3.50;;;;;;;;;;5040545;28;20040;-46
2022/08/25 14:08:36;;;;;;;17.77;4.20;;;;;;;;;;5068140;28;20491;-45
2022/08/25 14:11:13;;;;;;;18.53;4.10;;;;;;;;;;5074748;28;20073;-44
2022/08/25 14:13:40;;;;;;;13.38;3.92;;;;;;;;;;5077187;28;20025;-43
2022/08/25 14:16:12;;;;;;;12.15;3.55;;;;;;;;;;5076628;28;20020;-40
2022/08/25 14:18:39;;;;;;;13.18;3.70;;;;;;;;;;5076183;28;20055;-44
2022/08/25 14:21:08;;;;;;;14.10;3.33;;;;;;;;;;5074699;28;20054;-45
2022/08/25 14:23:34;;;;;;;19.02;3.47;;;;;;;;;;5075376;28;20024;-38
2022/08/25 14:26:00;;;;;;;13.45;3.42;;;;;;;;;;5075380;28;20022;-43
2022/08/25 14:28:30;;;;;;;21.83;4.32;;;;;;;;;;5071133;28;20540;-38
2022/08/25 14:31:01;;;;;;;13.40;3.10;;;;;;;;;;5073567;28;20060;-41
2022/08/25 14:33:31;;;;;;;12.70;3.45;;;;;;;;;;5075525;28;20111;-39
2022/08/25 14:35:58;;;;;;;15.13;4.50;;;;;;;;;;5075046;28;20521;-40
2022/08/25 14:38:23;;;;;;;7.82;2.85;;;;;;;;;;5074986;28;20379;-43
2022/08/25 14:40:49;;;;;;;22.52;16.60;;;;;;;;;;5076406;28;20028;-42
2022/08/25 14:43:15;;;;;;;26.77;11.10;;;;;;;;;;5074770;28;20380;-41
2022/08/25 14:45:41;;;;;;;14.65;4.65;;;;;;;;;;5076053;28;20020;-41